Time;durP1;ratioP1;P1;durP2;ratioP2;P2;SDS_P1;SDS_P2;PMS_P1;PMS_P2;Temp;Humidity;BMP_temperature;BMP_pressure;BME280_temperature;BME280_humidity;BME280_pressure;Samples;Min_cycle;Max_cycle;Signal;HPM_P1;HPM_P2
2023/04/28 00:00:41;;;;;;;;;;;;;;;18.63;40.11;101186.86;103603;1286;73342;-82
2023/04/28 00:03:15;;;;;;;;;;;;;;;18.62;40.18;101187.80;103607;1286;73552;-83
2023/04/28 00:05:54;;;;;;;;;;;;;;;18.63;40.17;101186.35;103556;1286;60568;-83
2023/04/28 00:08:21;;;;;;;;;;;;;;;18.62;40.24;101187.98;103660;1286;60479;-83
2023/04/28 00:10:54;;;;;;;;;;;;;;;18.63;40.11;101182.08;103583;1285;72557;-83
2023/04/28 00:13:31;;;;;;;;;;;;;;;18.62;40.07;101182.99;103514;1284;74642;-84
2023/04/28 00:16:06;;;;;;;;;;;;;;;18.62;40.14;101183.89;103659;1286;60469;-83
2023/04/28 00:18:32;;;;;;;;;;;;;;;18.62;40.14;101184.42;103677;1285;60857;-83
2023/04/28 00:21:07;;;;;;;;;;;;;;;18.62;40.16;101189.08;103685;1286;61480;-84
2023/04/28 00:23:39;;;;;;;;;;;;;;;18.62;40.08;101189.61;103883;1288;74516;-83
2023/04/28 00:26:07;;;;;;;;;;;;;;;18.62;40.21;101187.30;104314;1286;61285;-82
2023/04/28 00:28:36;;;;;;;;;;;;;;;18.62;40.08;101189.42;103818;1286;61387;-83
2023/04/28 00:31:01;;;;;;;;;;;;;;;18.62;40.13;101194.23;103581;1285;73355;-83
2023/04/28 00:33:36;;;;;;;;;;;;;;;18.62;39.99;101197.80;103665;1286;74082;-83
2023/04/28 00:36:22;;;;;;;;;;;;;;;18.62;40.20;101201.54;103622;1286;61277;-83
2023/04/28 00:38:47;;;;;;;;;;;;;;;18.61;40.08;101200.88;103566;1286;61375;-84
2023/04/28 00:41:22;;;;;;;;;;;;;;;18.62;40.13;101205.83;103492;1291;61376;-82
2023/04/28 00:43:51;;;;;;;;;;;;;;;18.61;40.12;101206.02;103582;1284;75443;-83
2023/04/28 00:46:21;;;;;;;;;;;;;;;18.62;40.01;101205.84;103644;1286;61307;-82
2023/04/28 00:48:59;;;;;;;;;;;;;;;18.61;39.95;101204.83;103541;1285;61390;-83
2023/04/28 00:51:43;;;;;;;;;;;;;;;;;;;;;
2023/04/28 00:54:11;;;;;;;;;;;;;;;18.60;40.09;101204.30;103551;1286;75798;-83
2023/04/28 00:56:37;;;;;;;;;;;;;;;18.61;40.02;101206.07;103605;1286;61336;-83
2023/04/28 00:59:12;;;;;;;;;;;;;;;18.60;40.04;101205.74;103524;1291;61487;-82
2023/04/28 01:01:40;;;;;;;;;;;;;;;18.59;40.07;101208.27;103564;1286;73522;-83
2023/04/28 01:04:06;;;;;;;;;;;;;;;18.59;40.07;101205.58;103727;1285;74201;-83
2023/04/28 01:06:43;;;;;;;;;;;;;;;18.59;40.07;101206.85;103639;1286;61374;-84
2023/04/28 01:09:14;;;;;;;;;;;;;;;18.59;40.10;101208.61;103630;1285;61289;-83
2023/04/28 01:11:39;;;;;;;;;;;;;;;18.60;40.17;101213.05;103538;1285;72569;-83
2023/04/28 01:14:28;;;;;;;;;;;;;;;18.59;39.94;101206.86;102914;1295;73346;-82
2023/04/28 01:16:59;;;;;;;;;;;;;;;18.59;39.98;101206.48;102613;1297;62604;-82
2023/04/28 01:19:34;;;;;;;;;;;;;;;18.59;40.07;101209.18;102897;1293;61309;-83
2023/04/28 01:22:03;;;;;;;;;;;;;;;18.59;40.16;101204.71;102910;1294;73526;-82
2023/04/28 01:24:32;;;;;;;;;;;;;;;18.59;40.06;101209.73;102683;1299;74519;-83
2023/04/28 01:27:17;;;;;;;;;;;;;;;18.59;40.05;101210.26;102535;1297;62190;-83
2023/04/28 01:29:43;;;;;;;;;;;;;;;18.58;40.12;101209.56;102574;1298;61424;-83
2023/04/28 01:32:26;;;;;;;;;;;;;;;18.58;40.01;101217.04;102541;1300;73731;-83
2023/04/28 01:34:55;;;;;;;;;;;;;;;18.58;40.03;101216.31;102666;1296;75687;-84
2023/04/28 01:37:32;;;;;;;;;;;;;;;18.58;40.12;101215.79;102639;1297;62059;-83
2023/04/28 01:40:07;;;;;;;;;;;;;;;18.58;40.06;101219.02;102576;1297;61708;-82
2023/04/28 01:42:35;;;;;;;;;;;;;;;18.58;39.94;101215.81;102622;1300;73017;-84
2023/04/28 01:45:04;;;;;;;;;;;;;;;18.58;40.12;101216.02;102627;1296;75418;-82
2023/04/28 01:47:33;;;;;;;;;;;;;;;18.58;40.13;101213.89;102708;1297;62816;-83
2023/04/28 01:50:04;;;;;;;;;;;;;;;18.57;39.99;101215.67;102598;1297;61631;-83
2023/04/28 01:52:29;;;;;;;;;;;;;;;18.58;40.07;101212.80;102944;1289;73662;-83
2023/04/28 01:55:06;;;;;;;;;;;;;;;18.57;40.08;101215.86;103055;1294;61471;-83
2023/04/28 01:57:39;;;;;;;;;;;;;;;18.57;39.93;101219.60;103572;1285;61417;-84
2023/04/28 02:00:08;;;;;;;;;;;;;;;18.57;39.93;101219.99;103662;1285;61375;-83
2023/04/28 02:02:37;;;;;;;;;;;;;;;18.56;39.95;101221.96;103553;1289;72725;-83
2023/04/28 02:05:10;;;;;;;;;;;;;;;18.57;40.02;101221.95;103206;1289;61390;-83
2023/04/28 02:07:35;;;;;;;;;;;;;;;18.56;40.12;101218.58;103094;1289;61337;-83
2023/04/28 02:10:10;;;;;;;;;;;;;;;18.56;40.03;101219.83;103205;1289;61385;-83
2023/04/28 02:12:36;;;;;;;;;;;;;;;18.56;39.97;101220.91;103246;1289;61395;-83
2023/04/28 02:15:11;;;;;;;;;;;;;;;18.56;40.04;101221.61;103213;1294;61468;-84
2023/04/28 02:17:40;;;;;;;;;;;;;;;18.56;40.01;101218.95;103276;1289;61292;-83
2023/04/28 02:20:17;;;;;;;;;;;;;;;18.56;40.03;101222.19;103051;1289;62675;-84
2023/04/28 02:22:43;;;;;;;;;;;;;;;18.56;40.10;101224.48;103232;1289;73300;-84
2023/04/28 02:25:12;;;;;;;;;;;;;;;18.55;39.90;101224.73;103321;1293;61797;-83
2023/04/28 02:27:37;;;;;;;;;;;;;;;18.55;40.05;101220.81;103102;1296;61368;-83
2023/04/28 02:30:31;;;;;;;;;;;;;;;18.55;40.06;101225.95;102563;1297;61328;-83
2023/04/28 02:33:02;;;;;;;;;;;;;;;18.55;40.02;101228.46;102598;1298;72572;-82
2023/04/28 02:35:27;;;;;;;;;;;;;;;18.55;40.08;101227.23;102628;1297;75465;-82
2023/04/28 02:37:56;;;;;;;;;;;;;;;18.55;40.10;101229.89;102853;1299;61439;-83
2023/04/28 02:40:34;;;;;;;;;;;;;;;18.55;40.08;101236.48;102881;1294;62255;-83
2023/04/28 02:43:02;;;;;;;;;;;;;;;18.54;40.08;101239.02;103259;1294;72554;-83
2023/04/28 02:45:28;;;;;;;;;;;;;;;18.55;40.04;101236.33;103649;1294;74527;-83
2023/04/28 02:47:56;;;;;;;;;;;;;;;18.55;40.10;101238.46;102947;1295;62347;-82
2023/04/28 02:50:22;;;;;;;;;;;;;;;18.55;40.15;101241.67;102926;1296;62533;-83
2023/04/28 02:52:48;;;;;;;;;;;;;;;18.54;40.06;101244.17;102880;1294;61570;-83
2023/04/28 02:55:22;;;;;;;;;;;;;;;18.55;40.13;101249.34;102843;1297;61442;-84
2023/04/28 02:57:53;;;;;;;;;;;;;;;18.54;40.07;101251.13;102593;1296;61411;-83
2023/04/28 03:00:19;;;;;;;;;;;;;;;18.54;40.13;101253.82;102586;1297;62561;-83
2023/04/28 03:02:47;;;;;;;;;;;;;;;18.54;40.15;101259.34;102558;1296;61430;-82
2023/04/28 03:05:12;;;;;;;;;;;;;;;18.54;40.12;101259.89;102554;1296;75663;-83
2023/04/28 03:07:44;;;;;;;;;;;;;;;18.53;40.09;101261.34;102754;1289;61636;-83
2023/04/28 03:10:12;;;;;;;;;;;;;;;18.53;40.05;101261.02;103069;1288;62312;-83
2023/04/28 03:12:37;;;;;;;;;;;;;;;18.53;40.11;101264.39;103096;1289;73731;-83
2023/04/28 03:15:09;;;;;;;;;;;;;;;18.53;40.09;101266.53;103121;1288;61467;-83
2023/04/28 03:17:40;;;;;;;;;;;;;;;18.53;40.15;101273.66;103096;1288;61299;-83
2023/04/28 03:20:26;;;;;;;;;;;;;;;18.53;40.05;101275.79;103113;1291;61697;-83
2023/04/28 03:22:54;;;;;;;;;;;;;;;18.53;40.13;101278.66;103080;1289;61425;-83
2023/04/28 03:25:20;;;;;;;;;;;;;;;18.53;40.11;101285.05;103298;1289;73297;-83
2023/04/28 03:27:46;;;;;;;;;;;;;;;18.53;40.12;101287.22;103314;1288;61534;-83
2023/04/28 03:30:20;;;;;;;;;;;;;;;18.52;40.17;101290.45;103346;1288;61583;-83
2023/04/28 03:32:49;;;;;;;;;;;;;;;18.52;40.05;101288.50;103066;1289;71441;-83
2023/04/28 03:35:15;;;;;;;;;;;;;;;18.52;40.05;101293.46;103475;1284;75424;-83
2023/04/28 03:38:01;;;;;;;;;;;;;;;18.52;39.97;101300.95;103651;1286;61365;-82
2023/04/28 03:40:37;;;;;;;;;;;;;;;18.52;40.01;101300.27;103776;1286;61256;-84
2023/04/28 03:43:06;;;;;;;;;;;;;;;18.53;39.94;101302.39;103680;1285;73415;-82
2023/04/28 03:45:35;;;;;;;;;;;;;;;18.53;40.15;101309.34;103914;1286;75525;-83
2023/04/28 03:48:03;;;;;;;;;;;;;;;18.53;40.09;101315.23;103751;1286;61701;-82
2023/04/28 03:50:39;;;;;;;;;;;;;;;18.53;39.94;101321.27;104330;1285;62244;-83
2023/04/28 03:53:08;;;;;;;;;;;;;;;18.53;40.04;101327.67;103922;1288;73830;-82
2023/04/28 03:55:36;;;;;;;;;;;;;;;18.53;39.99;101330.16;103616;1286;74538;-84
2023/04/28 03:58:11;;;;;;;;;;;;;;;18.54;39.99;101333.36;103598;1286;61333;-82
2023/04/28 04:00:36;;;;;;;;;;;;;;;18.54;40.05;101335.13;103992;1286;61286;-82
2023/04/28 04:03:02;;;;;;;;;;;;;;;18.54;40.05;101337.09;104108;1285;61394;-82
2023/04/28 04:05:50;;;;;;;;;;;;;;;18.54;39.97;101342.44;103910;1286;75060;-83
2023/04/28 04:08:16;;;;;;;;;;;;;;;18.53;39.88;101348.17;103829;1286;61263;-83
2023/04/28 04:10:42;;;;;;;;;;;;;;;18.52;39.84;101349.10;103860;1286;61552;-82
2023/04/28 04:13:10;;;;;;;;;;;;;;;18.52;39.80;101351.23;103775;1286;72435;-82
2023/04/28 04:15:36;;;;;;;;;;;;;;;18.51;39.85;101352.73;103943;1285;61336;-82
2023/04/28 04:18:07;;;;;;;;;;;;;;;18.50;39.69;101354.93;103931;1286;62803;-83
2023/04/28 04:20:35;;;;;;;;;;;;;;;18.49;39.66;101356.78;103634;1285;61208;-85
2023/04/28 04:23:10;;;;;;;;;;;;;;;18.48;39.61;101360.90;103637;1286;73485;-84
2023/04/28 04:25:39;;;;;;;;;;;;;;;18.46;39.54;101361.73;103878;1286;75338;-83
2023/04/28 04:28:04;;;;;;;;;;;;;;;18.44;39.57;101360.75;103830;1289;62548;-83
2023/04/28 04:30:30;;;;;;;;;;;;;;;18.41;39.47;101364.97;103885;1284;61416;-83
2023/04/28 04:32:55;;;;;;;;;;;;;;;18.39;39.50;101369.91;103648;1291;61393;-84
2023/04/28 04:35:21;;;;;;;;;;;;;;;18.37;39.51;101372.86;104204;1286;61314;-82
2023/04/28 04:37:47;;;;;;;;;;;;;;;18.35;39.45;101377.94;103932;1286;75179;-83
2023/04/28 04:40:12;;;;;;;;;;;;;;;18.34;39.36;101379.42;103945;1285;61944;-84
2023/04/28 04:42:45;;;;;;;;;;;;;;;18.33;39.34;101381.64;103839;1286;61243;-83
2023/04/28 04:45:13;;;;;;;;;;;;;;;18.31;39.19;101387.45;104080;1286;73637;-83
2023/04/28 04:47:39;;;;;;;;;;;;;;;18.29;39.23;101380.59;104116;1285;75403;-82
2023/04/28 04:50:05;;;;;;;;;;;;;;;18.28;39.18;101387.43;103953;1285;61973;-84
2023/04/28 04:52:31;;;;;;;;;;;;;;;18.24;39.11;101389.89;104433;1285;61252;-81
2023/04/28 04:54:57;;;;;;;;;;;;;;;18.21;39.03;101390.77;104197;1285;61695;-82
2023/04/28 04:57:23;;;;;;;;;;;;;;;18.18;38.95;101396.26;104672;1284;61327;-82
2023/04/28 04:59:49;;;;;;;;;;;;;;;18.15;39.02;101400.52;104897;1284;61315;-82
2023/04/28 05:02:19;;;;;;;;;;;;;;;18.12;38.94;101399.06;104598;1286;61539;-81
2023/04/28 05:04:44;;;;;;;;;;;;;;;18.10;38.98;101400.21;104830;1285;61261;-82
2023/04/28 05:07:10;;;;;;;;;;;;;;;18.08;39.05;101394.94;104934;1284;61394;-82
2023/04/28 05:09:35;;;;;;;;;;;;;;;18.07;38.85;101393.77;105079;1286;61736;-82
2023/04/28 05:12:01;;;;;;;;;;;;;;;18.07;38.95;101398.05;104875;1285;61438;-82
2023/04/28 05:14:26;;;;;;;;;;;;;;;18.07;38.91;101398.02;104933;1286;61250;-82
2023/04/28 05:16:52;;;;;;;;;;;;;;;18.08;38.91;101398.73;104879;1285;61394;-80
2023/04/28 05:19:17;;;;;;;;;;;;;;;18.08;38.75;101396.74;104736;1285;61384;-80
2023/04/28 05:21:43;;;;;;;;;;;;;;;18.10;38.76;101401.45;104780;1286;61298;-81
2023/04/28 05:24:08;;;;;;;;;;;;;;;18.12;38.70;101400.13;105032;1286;62080;-81
2023/04/28 05:26:34;;;;;;;;;;;;;;;18.14;38.66;101404.84;104433;1285;61176;-81
2023/04/28 05:29:00;;;;;;;;;;;;;;;18.16;38.70;101408.63;104667;1285;61270;-81
2023/04/28 05:31:26;;;;;;;;;;;;;;;18.19;38.72;101413.88;104532;1285;61450;-82
2023/04/28 05:33:51;;;;;;;;;;;;;;;18.20;38.59;101413.05;104419;1285;61285;-81
2023/04/28 05:36:17;;;;;;;;;;;;;;;18.23;38.65;101414.39;104631;1284;61378;-81
2023/04/28 05:38:42;;;;;;;;;;;;;;;18.25;38.45;101413.73;104640;1290;61307;-82
2023/04/28 05:41:08;;;;;;;;;;;;;;;18.29;38.41;101418.39;104583;1284;73182;-81
2023/04/28 05:43:33;;;;;;;;;;;;;;;18.32;38.47;101420.73;104668;1291;62453;-81
2023/04/28 05:45:59;;;;;;;;;;;;;;;18.33;38.44;101420.64;104846;1285;59781;-81
2023/04/28 05:48:25;;;;;;;;;;;;;;;18.35;38.41;101423.05;104791;1286;61356;-82
2023/04/28 05:50:50;;;;;;;;;;;;;;;18.37;38.38;101422.58;105248;1286;59877;-82
2023/04/28 05:53:16;;;;;;;;;;;;;;;18.39;38.40;101425.16;105239;1285;72606;-82
2023/04/28 05:55:41;;;;;;;;;;;;;;;18.39;38.52;101421.98;105139;1286;61337;-82
2023/04/28 05:58:07;;;;;;;;;;;;;;;18.37;38.39;101423.65;105472;1285;61410;-83
2023/04/28 06:00:33;;;;;;;;;;;;;;;18.30;38.33;101428.63;105430;1284;60816;-82
2023/04/28 06:02:59;;;;;;;;;;;;;;;18.27;38.27;101432.34;105015;1290;61374;-82
2023/04/28 06:05:24;;;;;;;;;;;;;;;18.25;38.19;101430.32;105242;1285;61474;-82
2023/04/28 06:07:50;;;;;;;;;;;;;;;18.22;38.21;101426.92;104932;1286;74433;-82
2023/04/28 06:10:15;;;;;;;;;;;;;;;18.18;37.88;101428.02;105289;1286;61378;-82
2023/04/28 06:12:41;;;;;;;;;;;;;;;18.14;37.99;101429.60;105380;1286;60743;-82
2023/04/28 06:15:06;;;;;;;;;;;;;;;18.13;37.96;101429.98;105286;1285;61390;-81
2023/04/28 06:17:34;;;;;;;;;;;;;;;18.14;37.91;101431.38;105103;1285;61330;-81
2023/04/28 06:19:59;;;;;;;;;;;;;;;18.15;37.98;101431.88;104930;1291;75494;-81
2023/04/28 06:22:25;;;;;;;;;;;;;;;18.14;37.75;101432.08;104908;1286;61381;-81
2023/04/28 06:24:50;;;;;;;;;;;;;;;18.15;37.86;101430.27;104952;1285;61348;-82
2023/04/28 06:27:16;;;;;;;;;;;;;;;18.18;37.71;101430.83;105004;1290;61428;-81
2023/04/28 06:29:41;;;;;;;;;;;;;;;18.21;37.67;101429.98;104973;1286;61141;-82
2023/04/28 06:32:07;;;;;;;;;;;;;;;18.23;37.72;101430.58;104912;1286;74485;-81
2023/04/28 06:34:33;;;;;;;;;;;;;;;18.26;37.63;101428.67;104950;1286;61417;-81
2023/04/28 06:36:58;;;;;;;;;;;;;;;18.27;37.52;101427.70;104910;1286;61364;-82
2023/04/28 06:39:24;;;;;;;;;;;;;;;18.29;37.52;101426.56;104750;1285;61502;-81
2023/04/28 06:41:50;;;;;;;;;;;;;;;18.30;37.60;101426.70;104734;1286;61446;-82
2023/04/28 06:44:15;;;;;;;;;;;;;;;18.24;37.22;101434.62;104713;1286;61390;-82
2023/04/28 06:46:41;;;;;;;;;;;;;;;18.14;37.08;101427.09;104333;1286;61509;-81
2023/04/28 06:49:07;;;;;;;;;;;;;;;18.11;36.99;101427.06;105109;1286;61829;-81
2023/04/28 06:51:32;;;;;;;;;;;;;;;18.11;36.93;101427.41;104832;1285;61398;-82
2023/04/28 06:53:58;;;;;;;;;;;;;;;18.05;36.64;101431.60;104957;1286;61368;-82
2023/04/28 06:56:24;;;;;;;;;;;;;;;17.99;36.51;101432.68;104830;1285;61049;-82
2023/04/28 06:59:06;;;;;;;;;;;;;;;;;;;;;
2023/04/28 07:01:34;;;;;;;;;;;;;;;17.89;36.05;101430.95;104939;1286;72253;-82
2023/04/28 07:04:00;;;;;;;;;;;;;;;17.83;35.85;101428.20;104675;1285;61245;-82
2023/04/28 07:06:26;;;;;;;;;;;;;;;17.80;35.77;101425.30;104322;1284;775932;-81
2023/04/28 07:08:52;;;;;;;;;;;;;;;17.76;35.81;101432.08;104796;1288;61289;-81
2023/04/28 07:11:18;;;;;;;;;;;;;;;17.76;35.69;101434.23;105144;1285;59839;-81
2023/04/28 07:20:00;;;;;;;;;;;;;;;17.76;35.35;101428.34;104682;1285;61266;-82
2023/04/28 07:22:26;;;;;;;;;;;;;;;17.80;35.39;101429.76;104839;1285;72635;-82
2023/04/28 07:25:04;;;;;;;;;;;;;;;;;;;;;
2023/04/28 07:27:50;;;;;;;;;;;;;;;17.85;35.15;101427.02;104711;1284;62261;-82
2023/04/28 07:30:16;;;;;;;;;;;;;;;17.85;34.89;101421.85;104825;1285;61317;-81
2023/04/28 07:32:42;;;;;;;;;;;;;;;17.84;34.77;101423.87;104731;1290;61388;-82
2023/04/28 07:35:08;;;;;;;;;;;;;;;17.85;34.71;101429.52;104678;1286;61362;-81
2023/04/28 07:37:34;;;;;;;;;;;;;;;17.81;34.50;101430.64;104792;1290;61176;-81
2023/04/28 07:39:59;;;;;;;;;;;;;;;17.78;34.41;101427.92;104841;1285;61777;-81
2023/04/28 07:42:27;;;;;;;;;;;;;;;17.76;34.19;101426.22;104862;1286;61320;-81
2023/04/28 07:44:52;;;;;;;;;;;;;;;17.65;34.10;101421.59;104567;1286;72485;-81
2023/04/28 07:47:24;;;;;;;;;;;;;;;17.57;33.66;101413.73;104776;1286;61249;-81
2023/04/28 07:49:49;;;;;;;;;;;;;;;17.56;33.79;101414.66;104866;1286;61164;-83
2023/04/28 07:52:15;;;;;;;;;;;;;;;17.61;33.75;101415.17;104988;1286;61401;-82
2023/04/28 07:54:40;;;;;;;;;;;;;;;17.64;33.85;101416.29;104798;1286;61481;-81
2023/04/28 07:57:06;;;;;;;;;;;;;;;17.68;33.74;101418.24;105341;1286;60084;-82
2023/04/28 07:59:33;;;;;;;;;;;;;;;17.72;33.60;101413.77;105185;1289;61381;-82
2023/04/28 08:01:59;;;;;;;;;;;;;;;17.76;33.72;101410.89;106113;1288;61084;-82
2023/04/28 08:04:30;;;;;;;;;;;;;;;17.80;33.67;101416.22;106001;1286;60137;-82
2023/04/28 08:06:56;;;;;;;;;;;;;;;17.82;33.66;101414.18;104610;1291;72450;-81
2023/04/28 08:09:21;;;;;;;;;;;;;;;17.82;33.63;101409.34;104430;1289;61643;-81
2023/04/28 08:11:48;;;;;;;;;;;;;;;17.83;33.46;101411.98;104771;1289;61326;-81
2023/04/28 08:14:14;;;;;;;;;;;;;;;17.83;33.44;101411.64;104996;1289;59626;-81
2023/04/28 08:16:40;;;;;;;;;;;;;;;17.85;33.45;101409.62;104867;1289;61146;-81
2023/04/28 08:19:06;;;;;;;;;;;;;;;17.83;33.40;101401.83;104717;1287;61215;-81
2023/04/28 08:21:31;;;;;;;;;;;;;;;17.84;33.35;101404.48;105425;1291;62733;-81
2023/04/28 08:23:58;;;;;;;;;;;;;;;17.84;33.42;101402.15;104640;1287;61335;-82
2023/04/28 08:26:24;;;;;;;;;;;;;;;17.87;33.35;101400.40;104721;1289;62481;-81
2023/04/28 08:28:50;;;;;;;;;;;;;;;17.88;33.25;101397.88;104913;1294;61196;-81
2023/04/28 08:31:16;;;;;;;;;;;;;;;17.91;33.23;101392.59;105023;1292;61301;-81
2023/04/28 08:33:43;;;;;;;;;;;;;;;17.92;33.19;101387.55;105386;1285;60014;-81
2023/04/28 08:36:10;;;;;;;;;;;;;;;17.96;33.24;101383.61;105075;1286;61308;-81
2023/04/28 08:38:36;;;;;;;;;;;;;;;17.95;33.05;101384.38;104771;1286;61189;-81
2023/04/28 08:41:03;;;;;;;;;;;;;;;17.95;33.15;101379.77;104838;1286;61402;-81
2023/04/28 08:43:31;;;;;;;;;;;;;;;17.94;33.02;101375.69;104773;1286;61310;-80
2023/04/28 08:45:57;;;;;;;;;;;;;;;17.95;33.00;101376.39;106693;1284;59596;-81
2023/04/28 08:48:22;;;;;;;;;;;;;;;17.94;33.13;101372.85;106651;1285;59496;-81
2023/04/28 08:50:51;;;;;;;;;;;;;;;17.95;33.12;101373.16;104841;1291;61823;-81
2023/04/28 08:53:21;;;;;;;;;;;;;;;17.98;33.23;101373.56;105190;1286;61284;-81
2023/04/28 08:55:47;;;;;;;;;;;;;;;18.00;33.12;101375.45;104428;1286;61292;-81
2023/04/28 08:58:13;;;;;;;;;;;;;;;17.96;32.98;101369.95;104394;1285;73191;-81
2023/04/28 09:00:40;;;;;;;;;;;;;;;17.95;32.97;101368.54;104689;1286;62906;-81
2023/04/28 09:03:07;;;;;;;;;;;;;;;17.98;33.22;101365.02;104758;1285;61375;-81
2023/04/28 09:05:36;;;;;;;;;;;;;;;17.99;33.12;101368.17;104415;1291;61142;-81
2023/04/28 09:08:02;;;;;;;;;;;;;;;17.98;33.09;101369.83;104606;1288;73247;-82
2023/04/28 09:10:36;;;;;;;;;;;;;;;17.96;33.09;101370.30;103953;1285;74657;-82
2023/04/28 09:13:04;;;;;;;;;;;;;;;17.96;33.07;101360.13;104258;1288;61290;-82
2023/04/28 09:15:31;;;;;;;;;;;;;;;17.96;33.13;101359.26;104762;1286;61068;-80
2023/04/28 09:17:58;;;;;;;;;;;;;;;17.97;33.15;101357.40;104481;1286;61237;-82
2023/04/28 09:20:27;;;;;;;;;;;;;;;17.97;33.22;101358.80;104470;1286;61385;-81
2023/04/28 09:22:54;;;;;;;;;;;;;;;17.99;33.22;101361.95;104233;1286;61762;-82
2023/04/28 09:25:25;;;;;;;;;;;;;;;17.98;33.29;101356.97;104133;1286;62451;-82
2023/04/28 09:27:54;;;;;;;;;;;;;;;18.00;33.39;101357.98;104036;1291;72525;-82
2023/04/28 09:30:32;;;;;;;;;;;;;;;18.01;33.34;101357.58;104203;1286;75259;-81
2023/04/28 09:33:04;;;;;;;;;;;;;;;18.02;33.34;101353.77;104559;1286;61216;-81
2023/04/28 09:35:39;;;;;;;;;;;;;;;18.03;33.35;101348.00;104462;1288;62079;-81
2023/04/28 09:38:05;;;;;;;;;;;;;;;18.05;33.38;101347.04;104511;1290;72500;-81
2023/04/28 09:40:33;;;;;;;;;;;;;;;18.07;33.47;101336.96;104219;1285;61425;-81
2023/04/28 09:42:58;;;;;;;;;;;;;;;18.08;33.42;101330.31;104208;1284;61062;-79
2023/04/28 09:45:24;;;;;;;;;;;;;;;18.10;33.38;101333.95;104258;1286;62566;-81
2023/04/28 09:47:51;;;;;;;;;;;;;;;18.13;33.47;101331.34;104422;1285;61352;-80
2023/04/28 09:50:17;;;;;;;;;;;;;;;18.15;33.57;101327.46;104060;1286;62427;-82
2023/04/28 09:52:44;;;;;;;;;;;;;;;18.18;33.81;101330.87;103933;1288;61410;-81
2023/04/28 09:55:11;;;;;;;;;;;;;;;18.20;33.85;101329.33;104375;1285;61273;-80
2023/04/28 09:57:36;;;;;;;;;;;;;;;18.23;34.00;101333.48;104336;1286;61226;-81
2023/04/28 10:00:05;;;;;;;;;;;;;;;18.25;34.18;101329.48;104451;1286;62398;-81
2023/04/28 10:02:31;;;;;;;;;;;;;;;18.26;34.25;101324.59;106766;1285;58890;-81
2023/04/28 10:04:56;;;;;;;;;;;;;;;18.25;34.23;101320.73;104992;1285;61368;-81
2023/04/28 10:07:25;;;;;;;;;;;;;;;18.21;34.09;101320.39;104135;1286;61355;-83
2023/04/28 10:09:50;;;;;;;;;;;;;;;18.20;34.25;101319.71;104059;1288;74854;-81
2023/04/28 10:12:18;;;;;;;;;;;;;;;18.21;34.30;101319.67;104033;1286;61406;-83
2023/04/28 10:14:54;;;;;;;;;;;;;;;18.23;34.29;101316.19;103840;1287;62481;-83
2023/04/28 10:17:24;;;;;;;;;;;;;;;18.24;34.38;101309.91;103929;1286;73259;-83
2023/04/28 10:19:51;;;;;;;;;;;;;;;18.26;34.52;101308.73;104030;1285;74467;-83
2023/04/28 10:22:31;;;;;;;;;;;;;;;18.28;34.25;101304.75;103960;1285;61364;-83
2023/04/28 10:24:59;;;;;;;;;;;;;;;18.28;34.36;101300.83;104458;1287;61743;-82
2023/04/28 10:27:34;;;;;;;;;;;;;;;18.29;34.41;101300.77;104083;1286;73245;-83
2023/04/28 10:30:18;;;;;;;;;;;;;;;18.29;34.33;101299.66;103820;1285;74889;-83
2023/04/28 10:32:49;;;;;;;;;;;;;;;18.30;34.34;101303.74;103850;1286;61294;-83
2023/04/28 10:35:18;;;;;;;;;;;;;;;18.30;34.51;101300.52;103997;1289;61521;-83
2023/04/28 10:38:09;;;;;;;;;;;;;;;18.31;34.46;101297.11;104040;1288;72545;-83
2023/04/28 10:40:48;;;;;;;;;;;;;;;18.32;34.47;101300.77;103778;1291;74313;-82
2023/04/28 10:43:52;;;;;;;;;;;;;;;18.34;34.49;101298.02;103829;1288;61994;-82
2023/04/28 10:46:17;;;;;;;;;;;;;;;18.34;34.65;101301.76;103304;1292;61403;-81
2023/04/28 10:49:07;;;;;;;;;;;;;;;18.34;34.57;101298.34;103680;1292;72485;-82
2023/04/28 10:51:32;;;;;;;;;;;;;;;18.36;34.68;101292.04;103015;1301;74391;-82
2023/04/28 10:54:12;;;;;;;;;;;;;;;18.36;34.78;101285.59;102708;1301;61480;-82
2023/04/28 10:56:38;;;;;;;;;;;;;;;18.37;34.78;101275.72;103233;1300;61503;-82
2023/04/28 10:59:23;;;;;;;;;;;;;;;18.37;34.83;101270.59;103386;1303;61463;-82
2023/04/28 11:01:49;;;;;;;;;;;;;;;18.36;34.91;101273.47;103361;1299;74539;-82
2023/04/28 11:04:44;;;;;;;;;;;;;;;18.36;34.98;101264.95;103013;1299;61792;-82
2023/04/28 11:07:18;;;;;;;;;;;;;;;18.36;35.13;101266.71;102429;1306;61437;-83
2023/04/28 11:09:48;;;;;;;;;;;;;;;18.35;35.06;101263.92;102347;1305;72215;-83
2023/04/28 11:12:17;;;;;;;;;;;;;;;18.34;35.10;101263.63;102407;1305;75422;-83
2023/04/28 11:14:46;;;;;;;;;;;;;;;18.33;35.03;101258.35;102423;1311;61395;-83
2023/04/28 11:17:18;;;;;;;;;;;;;;;18.33;35.21;101265.29;102427;1300;61314;-82
2023/04/28 11:19:47;;;;;;;;;;;;;;;18.30;35.02;101258.64;102618;1306;72505;-83
2023/04/28 11:22:22;;;;;;;;;;;;;;;18.29;35.18;101249.25;102676;1305;75697;-84
2023/04/28 11:25:03;;;;;;;;;;;;;;;18.29;35.01;101246.41;102562;1305;61431;-83
2023/04/28 11:27:34;;;;;;;;;;;;;;;18.26;35.01;101242.26;102665;1300;61310;-83
2023/04/28 11:30:00;;;;;;;;;;;;;;;18.25;34.94;101247.51;103036;1295;71374;-82
2023/04/28 11:32:31;;;;;;;;;;;;;;;18.25;34.94;101251.96;103138;1296;74475;-83
2023/04/28 11:35:23;;;;;;;;;;;;;;;18.26;34.79;101246.73;102884;1299;61335;-83
2023/04/28 11:38:03;;;;;;;;;;;;;;;18.27;35.09;101244.17;102922;1294;61471;-82
2023/04/28 11:40:32;;;;;;;;;;;;;;;18.29;34.98;101246.43;102954;1295;72470;-82
2023/04/28 11:43:05;;;;;;;;;;;;;;;18.30;34.92;101239.05;102965;1300;74558;-82
2023/04/28 11:45:36;;;;;;;;;;;;;;;18.32;34.86;101231.14;103835;1290;61413;-82
2023/04/28 11:48:16;;;;;;;;;;;;;;;18.33;35.08;101230.36;103865;1286;61384;-82
2023/04/28 11:50:44;;;;;;;;;;;;;;;18.35;34.89;101233.81;103885;1292;72680;-82
2023/04/28 11:53:27;;;;;;;;;;;;;;;18.35;35.07;101235.03;103788;1289;75241;-81
2023/04/28 11:56:03;;;;;;;;;;;;;;;18.37;35.08;101229.23;104068;1287;61346;-82
2023/04/28 11:58:32;;;;;;;;;;;;;;;18.38;35.08;101214.77;103965;1286;61337;-82
2023/04/28 12:01:25;;;;;;;;;;;;;;;18.39;35.19;101220.91;103671;1292;73345;-83
2023/04/28 12:04:05;;;;;;;;;;;;;;;18.41;35.18;101213.52;103610;1290;75391;-81
2023/04/28 12:06:40;;;;;;;;;;;;;;;18.41;35.14;101204.79;103573;1286;61361;-82
2023/04/28 12:09:25;;;;;;;;;;;;;;;18.42;35.19;101202.41;103672;1292;61266;-82
2023/04/28 12:12:01;;;;;;;;;;;;;;;18.43;35.16;101207.52;103633;1290;72351;-82
2023/04/28 12:14:28;;;;;;;;;;;;;;;18.44;35.19;101201.23;103679;1288;74487;-83
2023/04/28 12:17:08;;;;;;;;;;;;;;;18.45;35.18;101205.50;103712;1286;61383;-83
2023/04/28 12:19:43;;;;;;;;;;;;;;;18.45;35.29;101203.70;103624;1288;61289;-82
2023/04/28 12:22:16;;;;;;;;;;;;;;;18.45;35.40;101195.11;103669;1291;71782;-83
2023/04/28 12:25:26;;;;;;;;;;;;;;;18.46;35.35;101188.68;103612;1291;74446;-83
2023/04/28 12:27:58;;;;;;;;;;;;;;;18.46;35.45;101186.55;103012;1294;61391;-82
2023/04/28 12:30:27;;;;;;;;;;;;;;;18.46;35.47;101180.30;103032;1297;61278;-83
2023/04/28 12:32:59;;;;;;;;;;;;;;;18.46;35.55;101179.56;102932;1307;73529;-82
2023/04/28 12:35:25;;;;;;;;;;;;;;;18.47;35.49;101173.10;103153;1297;75358;-83
2023/04/28 12:38:03;;;;;;;;;;;;;;;18.47;35.54;101168.99;103048;1295;62178;-82
2023/04/28 12:40:46;;;;;;;;;;;;;;;18.48;35.56;101167.34;103115;1297;61306;-82
2023/04/28 12:43:22;;;;;;;;;;;;;;;18.49;35.72;101165.71;103087;1298;62315;-82
2023/04/28 12:45:51;;;;;;;;;;;;;;;18.49;35.72;101162.85;103245;1295;75226;-82
2023/04/28 12:48:26;;;;;;;;;;;;;;;18.50;35.78;101160.47;103133;1300;62084;-82
2023/04/28 12:50:51;;;;;;;;;;;;;;;18.50;35.85;101149.06;103100;1297;61497;-82